createdAt,value
2023-07-03T00:00:29.058Z,2.88
2023-07-03T00:03:31.519Z,2.47
2023-07-03T00:06:33.997Z,2.17
2023-07-03T00:09:36.366Z,2.10
2023-07-03T00:12:38.853Z,1.83
2023-07-03T00:15:41.195Z,2.53
2023-07-03T00:18:43.635Z,1.98
2023-07-03T00:21:46.047Z,1.75
2023-07-03T00:24:48.550Z,1.90
2023-07-03T00:27:51.150Z,2.00
2023-07-03T00:30:53.586Z,1.90
2023-07-03T00:33:55.973Z,2.33
2023-07-03T00:36:58.387Z,1.65
2023-07-03T00:40:00.950Z,1.90
2023-07-03T00:43:05.282Z,2.23
2023-07-03T00:46:11.922Z,2.08
2023-07-03T00:49:14.786Z,2.03
2023-07-03T00:52:17.341Z,2.28
2023-07-03T00:55:20.722Z,2.13
2023-07-03T00:58:23.279Z,1.97
2023-07-03T01:01:28.683Z,1.63
2023-07-03T01:04:46.487Z,2.28
2023-07-03T01:07:51.829Z,1.75
2023-07-03T01:10:55.683Z,2.20
2023-07-03T01:14:00.693Z,2.33
2023-07-03T01:17:03.643Z,2.50
2023-07-03T01:20:07.435Z,2.00
2023-07-03T01:23:36.180Z,3.20
2023-07-03T01:26:43.730Z,2.33
2023-07-03T01:29:55.015Z,2.53
2023-07-03T01:32:58.704Z,2.38
2023-07-03T01:36:02.095Z,2.35
2023-07-03T01:39:08.012Z,2.22
2023-07-03T01:42:11.648Z,2.53
2023-07-03T01:45:14.665Z,2.17
2023-07-03T01:48:18.254Z,2.58
2023-07-03T01:51:33.345Z,2.58
2023-07-03T01:54:41.666Z,2.72
2023-07-03T01:57:58.034Z,2.50
2023-07-03T02:01:08.057Z,2.73
2023-07-03T02:04:20.158Z,2.25
2023-07-03T02:07:22.888Z,2.58
2023-07-03T02:10:25.395Z,2.55
2023-07-03T02:13:28.703Z,2.83
2023-07-03T02:16:34.590Z,2.70
2023-07-03T02:19:37.614Z,2.58
2023-07-03T02:22:40.815Z,3.95
2023-07-03T02:25:49.914Z,2.53
2023-07-03T02:28:52.579Z,2.00
2023-07-03T02:31:55.022Z,2.10
2023-07-03T02:34:57.510Z,2.20
2023-07-03T02:37:59.904Z,2.30
2023-07-03T02:41:04.189Z,2.00
2023-07-03T02:44:06.586Z,2.70
2023-07-03T02:47:10.484Z,2.03
2023-07-03T02:50:13.981Z,3.05
2023-07-03T02:53:16.671Z,2.38
2023-07-03T02:56:19.166Z,2.70
2023-07-03T02:59:24.173Z,2.20
2023-07-03T03:02:27.230Z,4.00
2023-07-03T03:05:29.680Z,2.63
2023-07-03T03:08:32.179Z,1.98
2023-07-03T03:11:34.650Z,2.30
2023-07-03T03:14:38.057Z,2.40
2023-07-03T03:17:40.685Z,2.70
2023-07-03T03:20:46.911Z,2.30
2023-07-03T03:23:49.458Z,1.70
2023-07-03T03:26:51.918Z,2.78
2023-07-03T03:29:54.467Z,3.67
2023-07-03T03:32:57.024Z,2.10
2023-07-03T03:35:59.586Z,2.70
2023-07-03T03:39:02.049Z,2.65
2023-07-03T03:42:06.058Z,2.28
2023-07-03T03:45:08.693Z,2.40
2023-07-03T03:48:11.347Z,2.60
2023-07-03T03:51:15.208Z,2.40
2023-07-03T03:54:17.589Z,2.60
2023-07-03T03:57:19.996Z,2.45
2023-07-03T04:00:23.052Z,2.87
2023-07-03T04:03:25.703Z,2.90
2023-07-03T04:06:28.341Z,2.58
2023-07-03T04:09:30.942Z,2.72
2023-07-03T04:12:33.623Z,2.80
2023-07-03T04:15:38.426Z,2.17
2023-07-03T04:18:41.987Z,2.90
2023-07-03T04:21:44.431Z,2.60
2023-07-03T04:24:46.909Z,2.20
2023-07-03T04:27:49.375Z,2.60
2023-07-03T04:30:51.813Z,2.97
2023-07-03T04:33:54.235Z,3.10
2023-07-03T04:36:56.704Z,2.53
2023-07-03T04:39:59.153Z,2.75
2023-07-03T04:43:01.843Z,3.05
2023-07-03T04:46:04.735Z,2.60
2023-07-03T04:49:07.193Z,2.87
2023-07-03T04:52:09.547Z,2.22
2023-07-03T04:55:13.185Z,2.08
2023-07-03T04:58:16.125Z,1.90
2023-07-03T05:01:19.086Z,3.03
2023-07-03T05:04:21.649Z,3.40
2023-07-03T05:07:24.141Z,1.80
2023-07-03T05:10:27.033Z,1.80
2023-07-03T05:13:29.403Z,2.05
2023-07-03T05:16:32.151Z,1.90
2023-07-03T05:19:34.868Z,1.60
2023-07-03T05:22:42.113Z,1.55
2023-07-03T05:25:46.641Z,1.92
2023-07-03T05:28:49.057Z,1.70
2023-07-03T05:31:51.462Z,1.80
2023-07-03T05:34:53.880Z,1.73
2023-07-03T05:37:57.362Z,1.80
2023-07-03T05:40:59.898Z,1.88
2023-07-03T05:44:02.385Z,1.48
2023-07-03T05:47:07.589Z,1.90
2023-07-03T05:50:10.510Z,11.30
2023-07-03T05:53:13.293Z,8.85
2023-07-03T05:56:15.772Z,9.45
2023-07-03T05:59:18.200Z,9.40
2023-07-03T06:02:20.673Z,10.40
2023-07-03T06:05:23.180Z,7.23
2023-07-03T06:08:25.740Z,8.35
2023-07-03T06:11:28.135Z,7.65
2023-07-03T06:14:31.236Z,7.18
2023-07-03T06:17:33.705Z,8.23
2023-07-03T06:20:36.239Z,6.67
2023-07-03T06:23:38.594Z,7.30
2023-07-03T06:26:41.627Z,8.32
2023-07-03T06:29:44.140Z,6.45
2023-07-03T06:32:46.946Z,8.73
2023-07-03T06:35:51.107Z,5.93
2023-07-03T06:38:58.183Z,6.80
2023-07-03T06:42:00.891Z,8.35
2023-07-03T06:45:03.785Z,6.63
2023-07-03T06:48:06.394Z,7.73
2023-07-03T06:51:10.000Z,8.17
2023-07-03T06:54:12.384Z,12.95
2023-07-03T06:57:14.859Z,7.55
2023-07-03T07:00:17.976Z,7.43
2023-07-03T07:03:20.628Z,6.83
2023-07-03T07:06:28.613Z,8.20
2023-07-03T07:09:31.056Z,8.00
2023-07-03T07:12:33.475Z,7.45
2023-07-03T07:15:39.770Z,8.43
2023-07-03T07:18:42.682Z,7.40
2023-07-03T07:21:45.339Z,7.27
2023-07-03T07:24:47.832Z,5.70
2023-07-03T07:27:50.242Z,10.63
2023-07-03T07:30:52.944Z,6.88
2023-07-03T07:33:56.473Z,6.57
2023-07-03T07:36:59.121Z,6.17
2023-07-03T07:40:01.559Z,8.00
2023-07-03T07:43:04.726Z,6.03
2023-07-03T07:46:07.342Z,6.18
2023-07-03T07:49:10.564Z,7.17
2023-07-03T07:52:13.086Z,9.57
2023-07-03T07:55:15.544Z,8.13
2023-07-03T07:58:17.960Z,7.18
2023-07-03T08:01:20.904Z,9.43
2023-07-03T08:04:23.489Z,22.80
2023-07-03T08:07:25.982Z,13.47
2023-07-03T08:10:28.377Z,13.10
2023-07-03T08:13:32.113Z,37.15
2023-07-03T08:16:34.592Z,38.90
2023-07-03T08:19:37.516Z,46.58
2023-07-03T08:22:40.405Z,20.50
2023-07-03T08:25:43.113Z,15.60
2023-07-03T08:28:45.526Z,15.95
2023-07-03T08:31:47.937Z,10.60
2023-07-03T08:37:56.711Z,9.93
2023-07-03T08:41:00.659Z,10.65
2023-07-03T08:44:03.065Z,8.35
2023-07-03T08:47:12.044Z,8.02
2023-07-03T08:50:27.871Z,10.37
2023-07-03T08:53:43.760Z,10.83
2023-07-03T08:56:47.184Z,11.30
2023-07-03T08:59:49.534Z,10.70
2023-07-03T09:03:07.710Z,9.93
2023-07-03T09:06:51.535Z,9.50
2023-07-03T09:10:12.722Z,10.40
2023-07-03T09:13:40.310Z,9.23
2023-07-03T09:16:43.652Z,10.13
2023-07-03T09:19:48.666Z,9.20
2023-07-03T09:22:58.024Z,9.47
2023-07-03T09:26:06.653Z,12.13
2023-07-03T09:29:11.270Z,11.45
2023-07-03T09:32:27.809Z,10.05
2023-07-03T09:35:38.341Z,11.75
2023-07-03T09:38:40.934Z,10.63
2023-07-03T09:41:43.423Z,15.10
2023-07-03T09:44:45.911Z,10.85
2023-07-03T09:47:59.965Z,14.00
2023-07-03T09:51:20.791Z,10.70
2023-07-03T09:54:27.539Z,11.37
2023-07-03T09:57:30.038Z,13.63
2023-07-03T10:00:32.470Z,12.77
2023-07-03T10:03:36.535Z,10.00
2023-07-03T10:06:40.842Z,11.43
2023-07-03T10:12:59.531Z,10.57
2023-07-03T10:16:02.758Z,14.15
2023-07-03T10:19:05.381Z,13.80
2023-07-03T10:22:08.211Z,15.35
2023-07-03T10:25:18.632Z,11.43
2023-07-03T10:28:28.248Z,10.67
2023-07-03T10:31:41.752Z,12.13
2023-07-03T10:35:01.588Z,13.98
2023-07-03T10:38:17.576Z,10.98
2023-07-03T10:41:24.563Z,10.75
2023-07-03T10:44:31.126Z,11.93
2023-07-03T10:47:39.372Z,10.70
2023-07-03T10:50:50.583Z,10.65
2023-07-03T10:54:01.968Z,10.13
2023-07-03T10:57:07.387Z,12.23
2023-07-03T11:00:14.892Z,10.83
2023-07-03T11:03:43.746Z,11.38
2023-07-03T11:06:49.704Z,8.52
2023-07-03T11:10:10.172Z,10.35
2023-07-03T11:13:53.133Z,9.60
2023-07-03T11:17:07.642Z,11.63
2023-07-03T11:20:18.611Z,10.13
2023-07-03T11:23:31.738Z,18.05
2023-07-03T11:30:04.806Z,11.63
2023-07-03T11:33:07.534Z,9.77
2023-07-03T11:36:49.529Z,10.35
2023-07-03T11:39:58.205Z,25.52
2023-07-03T11:46:22.352Z,12.53
2023-07-03T11:49:27.264Z,13.87
2023-07-03T11:52:35.940Z,9.38
2023-07-03T11:55:40.720Z,9.35
2023-07-03T11:58:44.548Z,11.57
2023-07-03T12:01:47.139Z,11.90
2023-07-03T12:04:51.029Z,11.07
2023-07-03T12:07:53.470Z,9.27
2023-07-03T12:10:56.872Z,10.65
2023-07-03T12:13:59.655Z,11.65
2023-07-03T12:17:02.266Z,15.30
2023-07-03T12:20:13.799Z,11.20
2023-07-03T12:23:35.981Z,13.73
2023-07-03T12:26:51.247Z,16.00
2023-07-03T12:29:54.031Z,16.27
2023-07-03T12:32:58.400Z,10.67
2023-07-03T12:36:00.952Z,14.80
2023-07-03T12:39:16.108Z,12.75
2023-07-03T12:42:24.471Z,12.88
2023-07-03T12:45:29.399Z,34.10
2023-07-03T12:48:31.777Z,56.92
2023-07-03T12:51:39.699Z,59.10
2023-07-03T12:54:42.140Z,47.33
2023-07-03T12:57:45.974Z,48.60
2023-07-03T13:00:59.540Z,40.33
2023-07-03T13:04:02.708Z,27.33
2023-07-03T13:07:05.739Z,27.70
2023-07-03T13:10:12.220Z,30.08
2023-07-03T13:13:23.644Z,26.63
2023-07-03T13:16:31.943Z,17.92
2023-07-03T13:19:36.281Z,16.77
2023-07-03T13:22:38.883Z,20.80
2023-07-03T13:25:53.991Z,21.50
2023-07-03T13:29:02.525Z,21.55
2023-07-03T13:32:19.557Z,22.45
2023-07-03T13:35:49.650Z,19.73
2023-07-03T13:39:27.428Z,21.13
2023-07-03T13:42:32.034Z,21.10
2023-07-03T13:45:34.499Z,18.08
2023-07-03T13:48:36.894Z,17.13
2023-07-03T13:51:40.364Z,16.13
2023-07-03T13:54:42.807Z,17.77
2023-07-03T13:57:45.301Z,18.63
2023-07-03T14:00:47.766Z,16.10
2023-07-03T14:03:50.283Z,16.50
2023-07-03T14:06:52.862Z,13.73
2023-07-03T14:09:56.580Z,17.27
2023-07-03T14:12:58.939Z,17.42
2023-07-03T14:16:01.359Z,22.17
2023-07-03T14:19:06.936Z,16.17
2023-07-03T14:22:10.138Z,16.67
2023-07-03T14:25:14.926Z,15.53
2023-07-03T14:28:17.623Z,15.07
2023-07-03T14:31:20.013Z,18.10
2023-07-03T14:34:22.408Z,14.05
2023-07-03T14:37:24.786Z,16.55
2023-07-03T14:40:27.232Z,16.80
2023-07-03T14:43:29.657Z,16.05
2023-07-03T14:46:32.167Z,13.50
2023-07-03T14:49:34.595Z,12.15
2023-07-03T14:52:37.993Z,12.50
2023-07-03T14:55:40.363Z,17.10
2023-07-03T14:58:42.807Z,14.02
2023-07-03T15:01:45.444Z,16.25
2023-07-03T15:04:48.044Z,13.73
2023-07-03T15:07:53.146Z,14.03
2023-07-03T15:10:55.945Z,16.03
2023-07-03T15:13:58.405Z,12.48
2023-07-03T15:17:00.871Z,13.48
2023-07-03T15:20:05.408Z,14.85
2023-07-03T15:23:07.861Z,12.90
2023-07-03T15:26:10.961Z,13.83
2023-07-03T15:29:13.780Z,13.55
2023-07-03T15:32:16.318Z,12.45
2023-07-03T15:35:18.762Z,11.55
2023-07-03T15:38:21.167Z,15.37
2023-07-03T15:41:23.663Z,15.27
2023-07-03T15:44:26.752Z,12.20
2023-07-03T15:47:29.116Z,13.40
2023-07-03T15:50:31.537Z,13.68
2023-07-03T15:53:35.252Z,13.33
2023-07-03T15:56:37.670Z,13.00
2023-07-03T15:59:40.458Z,12.35
2023-07-03T16:02:43.050Z,15.27
2023-07-03T16:05:45.431Z,12.82
2023-07-03T16:08:50.992Z,11.87
2023-07-03T16:11:54.134Z,17.60
2023-07-03T16:14:56.558Z,13.73
2023-07-03T16:17:58.924Z,11.00
2023-07-03T16:21:03.387Z,12.73
2023-07-03T16:24:08.147Z,11.60
2023-07-03T16:27:10.547Z,11.03
2023-07-03T16:30:12.951Z,12.65
2023-07-03T16:33:15.358Z,12.48
2023-07-03T16:36:23.426Z,13.00
2023-07-03T16:39:25.895Z,11.13
2023-07-03T16:42:28.445Z,10.13
2023-07-03T16:45:30.960Z,12.55
2023-07-03T16:48:34.246Z,11.05
2023-07-03T16:51:36.845Z,12.27
2023-07-03T16:54:39.261Z,11.67
2023-07-03T16:57:41.604Z,10.37
2023-07-03T17:00:44.088Z,11.45
2023-07-03T17:03:47.403Z,11.73
2023-07-03T17:06:49.824Z,10.52
2023-07-03T17:09:52.295Z,13.10
2023-07-03T17:12:54.729Z,11.77
2023-07-03T17:15:57.294Z,10.45
2023-07-03T17:18:59.710Z,11.35
2023-07-03T17:22:02.216Z,10.98
2023-07-03T17:25:04.939Z,11.37
2023-07-03T17:28:07.690Z,10.83
2023-07-03T17:31:10.262Z,10.93
2023-07-03T17:34:13.998Z,10.13
2023-07-03T17:37:16.422Z,11.07
2023-07-03T17:40:18.803Z,11.57
2023-07-03T17:43:24.288Z,12.33
2023-07-03T17:46:26.847Z,11.10
2023-07-03T17:49:29.384Z,11.85
2023-07-03T17:52:32.090Z,9.27
2023-07-03T17:55:34.522Z,12.20
2023-07-03T17:58:36.919Z,11.23
2023-07-03T18:01:39.386Z,12.55
2023-07-03T18:04:42.077Z,10.90
2023-07-03T18:07:44.467Z,12.82
2023-07-03T18:10:46.856Z,11.57
2023-07-03T18:13:49.395Z,11.80
2023-07-03T18:16:52.197Z,12.88
2023-07-03T18:19:54.762Z,9.55
2023-07-03T18:22:57.271Z,10.98
2023-07-03T18:25:59.658Z,9.80
2023-07-03T18:29:02.042Z,12.30
2023-07-03T18:32:04.661Z,11.23
2023-07-03T18:35:07.683Z,9.15
2023-07-03T18:38:10.087Z,10.25
2023-07-03T18:41:12.829Z,11.83
2023-07-03T18:44:15.223Z,8.40
2023-07-03T18:47:17.766Z,10.18
2023-07-03T18:50:20.306Z,8.00
2023-07-03T18:53:22.746Z,9.05
2023-07-03T18:56:25.146Z,8.73
2023-07-03T18:59:28.094Z,10.80
2023-07-03T19:02:31.552Z,11.63
2023-07-03T19:05:33.955Z,10.68
2023-07-03T19:08:37.677Z,8.25
2023-07-03T19:11:43.917Z,8.63
2023-07-03T19:14:46.359Z,9.17
2023-07-03T19:17:48.788Z,8.80
2023-07-03T19:20:51.258Z,7.72
2023-07-03T19:23:53.634Z,9.55
2023-07-03T19:26:56.075Z,8.30
2023-07-03T19:29:58.480Z,8.77
2023-07-03T19:33:00.989Z,8.35
2023-07-03T19:36:03.561Z,9.75
2023-07-03T19:39:06.237Z,8.98
2023-07-03T19:42:08.803Z,9.60
2023-07-03T19:45:11.427Z,8.70
2023-07-03T19:48:14.275Z,8.00
2023-07-03T19:51:16.766Z,8.68
2023-07-03T19:54:19.154Z,8.15
2023-07-03T19:57:21.734Z,7.53
2023-07-03T20:00:26.805Z,8.43
2023-07-03T20:03:29.815Z,8.05
2023-07-03T20:06:32.355Z,8.77
2023-07-03T20:09:34.797Z,9.10
2023-07-03T20:12:37.198Z,8.07
2023-07-03T20:15:43.802Z,8.80
2023-07-03T20:18:53.667Z,8.43
2023-07-03T20:21:56.158Z,8.00
2023-07-03T20:24:58.581Z,9.68
2023-07-03T20:28:01.806Z,8.18
2023-07-03T20:31:07.785Z,7.73
2023-07-03T20:34:10.233Z,8.68
2023-07-03T20:37:12.715Z,8.02
2023-07-03T20:40:15.423Z,8.50
2023-07-03T20:43:17.795Z,7.32
2023-07-03T20:46:22.956Z,8.20
2023-07-03T20:49:26.601Z,10.65
2023-07-03T20:52:30.864Z,8.35
2023-07-03T20:55:44.387Z,8.40
2023-07-03T20:58:48.506Z,7.93
2023-07-03T21:01:51.221Z,8.10
2023-07-03T21:04:53.687Z,8.13
2023-07-03T21:07:56.112Z,8.55
2023-07-03T21:10:59.605Z,7.18
2023-07-03T21:14:05.542Z,7.07
2023-07-03T21:17:08.160Z,8.23
2023-07-03T21:20:11.275Z,7.05
2023-07-03T21:23:13.608Z,7.45
2023-07-03T21:26:19.197Z,6.80
2023-07-03T21:29:21.504Z,7.83
2023-07-03T21:32:23.828Z,7.80
2023-07-03T21:35:26.393Z,7.60
2023-07-03T21:38:28.737Z,7.47
2023-07-03T21:41:33.327Z,7.63
2023-07-03T21:44:35.714Z,7.80
2023-07-03T21:47:38.094Z,6.67
2023-07-03T21:50:40.455Z,8.27
2023-07-03T21:53:43.637Z,6.07
2023-07-03T21:56:46.717Z,6.85
2023-07-03T21:59:50.329Z,6.97
2023-07-03T22:02:52.766Z,6.90
2023-07-03T22:05:57.941Z,7.22
2023-07-03T22:09:00.660Z,6.03
2023-07-03T22:12:06.102Z,7.32
2023-07-03T22:15:09.147Z,7.20
2023-07-03T22:18:11.602Z,7.87
2023-07-03T22:21:15.583Z,7.93
2023-07-03T22:24:18.032Z,6.32
2023-07-03T22:27:20.385Z,7.30
2023-07-03T22:30:22.900Z,7.27
2023-07-03T22:33:25.502Z,7.37
2023-07-03T22:36:27.851Z,6.10
2023-07-03T22:39:30.267Z,7.22
2023-07-03T22:42:32.611Z,7.40
2023-07-03T22:45:35.239Z,7.17
2023-07-03T22:48:41.175Z,8.17
2023-07-03T22:51:43.695Z,7.63
2023-07-03T22:54:49.321Z,7.55
2023-07-03T22:57:51.806Z,7.13
2023-07-03T23:00:54.293Z,8.07
2023-07-03T23:03:56.736Z,7.73
2023-07-03T23:06:59.117Z,6.97
2023-07-03T23:10:08.174Z,7.90
2023-07-03T23:13:10.637Z,7.40
2023-07-03T23:16:13.173Z,7.00
2023-07-03T23:19:18.038Z,8.50
2023-07-03T23:22:21.353Z,6.93
2023-07-03T23:25:24.375Z,7.80
2023-07-03T23:28:32.712Z,7.20
2023-07-03T23:31:35.627Z,7.57
2023-07-03T23:34:38.090Z,7.03
2023-07-03T23:37:42.440Z,6.80
2023-07-03T23:40:45.942Z,7.68
2023-07-03T23:43:49.930Z,7.53
2023-07-03T23:46:52.966Z,7.30
2023-07-03T23:49:55.586Z,6.43
2023-07-03T23:52:58.233Z,5.80
2023-07-03T23:56:03.379Z,7.03
2023-07-03T23:59:05.736Z,7.28
